Time;durP1;ratioP1;P1;durP2;ratioP2;P2;SDS_P1;SDS_P2;PMS_P1;PMS_P2;Temp;Humidity;BMP_temperature;BMP_pressure;BME280_temperature;BME280_humidity;BME280_pressure;Samples;Min_cycle;Max_cycle;Signal;HPM_P1;HPM_P2
2023/01/30 00:00:55;;;;;;;20.48;12.85;;;;;;;6.17;50.96;99718.03;4975667;28;20452;-48
2023/01/30 00:03:22;;;;;;;16.10;11.57;;;;;;;6.10;50.44;99717.78;5000035;28;20049;-48
2023/01/30 00:05:48;;;;;;;19.35;11.52;;;;;;;6.09;50.07;99710.94;5014439;28;20014;-48
2023/01/30 00:08:14;;;;;;;17.30;12.15;;;;;;;6.09;50.59;99716.16;5015932;28;20495;-49
2023/01/30 00:10:40;;;;;;;19.23;12.32;;;;;;;6.20;51.16;99715.13;5014333;28;20026;-48
2023/01/30 00:13:06;;;;;;;18.52;12.15;;;;;;;6.30;50.42;99708.06;5015644;28;20444;-48
2023/01/30 00:15:31;;;;;;;16.23;12.82;;;;;;;6.28;50.44;99703.94;5015548;28;20037;-48
2023/01/30 00:17:57;;;;;;;15.95;11.93;;;;;;;6.17;50.91;99700.59;5015502;28;20156;-48
2023/01/30 00:20:22;;;;;;;17.98;11.48;;;;;;;6.22;51.00;99696.72;5015502;28;20510;-48
2023/01/30 00:22:48;;;;;;;15.52;12.00;;;;;;;6.11;50.64;99698.56;5014044;28;20030;-48
2023/01/30 00:25:14;;;;;;;15.05;11.82;;;;;;;6.02;51.26;99702.06;5015366;28;20041;-48
2023/01/30 00:27:39;;;;;;;17.58;12.02;;;;;;;6.10;51.09;99696.94;5014027;28;20046;-48
2023/01/30 00:30:06;;;;;;;16.77;12.32;;;;;;;6.29;50.76;99682.97;5013972;28;20036;-48
2023/01/30 00:32:32;;;;;;;14.73;12.18;;;;;;;6.42;50.83;99690.44;5013975;28;20120;-48
2023/01/30 00:34:57;;;;;;;18.45;13.48;;;;;;;6.48;50.52;99684.63;5015262;28;20061;-48
2023/01/30 00:37:23;;;;;;;18.00;12.60;;;;;;;6.50;50.36;99685.28;5015199;28;20141;-48
2023/01/30 00:39:48;;;;;;;15.88;11.02;;;;;;;6.57;50.69;99685.50;5013841;28;20026;-48
2023/01/30 00:47:42;;;;;;;14.93;11.65;;;;;;;6.79;50.35;99689.44;5014014;28;20037;-48
2023/01/30 00:50:08;;;;;;;17.83;13.40;;;;;;;6.89;50.31;99684.13;5014945;28;20510;-48
2023/01/30 00:52:34;;;;;;;15.95;12.63;;;;;;;7.02;49.97;99681.94;5015370;28;20065;-49
2023/01/30 00:55:00;;;;;;;20.63;13.18;;;;;;;6.85;49.38;99688.03;5016910;28;20041;-48
2023/01/30 00:57:25;;;;;;;18.80;12.30;;;;;;;6.39;49.49;99686.31;5016906;28;20483;-49
2023/01/30 00:59:51;;;;;;;16.55;12.27;;;;;;;6.04;50.10;99697.53;5034508;28;20615;-48
2023/01/30 01:02:16;;;;;;;19.00;11.32;;;;;;;5.93;50.12;99698.50;5016608;28;20030;-48
2023/01/30 01:04:42;;;;;;;16.30;12.50;;;;;;;5.82;50.86;99697.91;5016503;28;20024;-48
2023/01/30 01:07:12;;;;;;;15.73;12.55;;;;;;;5.74;50.84;99694.22;5016477;28;20112;-48
2023/01/30 01:09:38;;;;;;;15.75;10.55;;;;;;;5.61;51.60;99706.75;5016864;28;20018;-48
2023/01/30 01:12:04;;;;;;;15.95;12.85;;;;;;;5.32;50.99;99710.25;5015504;28;20025;-48
2023/01/30 01:14:30;;;;;;;16.98;12.10;;;;;;;5.10;52.04;99708.00;5034259;28;20505;-48
2023/01/30 01:16:56;;;;;;;21.42;12.43;;;;;;;5.06;53.31;99722.25;5016394;28;20113;-48
2023/01/30 01:19:21;;;;;;;19.90;13.50;;;;;;;5.38;53.86;99720.09;5016368;28;20029;-48
2023/01/30 01:21:47;;;;;;;17.25;12.02;;;;;;;5.85;53.64;99718.44;5034128;28;20064;-48
2023/01/30 01:24:14;;;;;;;22.15;12.23;;;;;;;6.19;53.17;99721.31;5033984;28;20049;-48
2023/01/30 01:26:40;;;;;;;15.95;11.60;;;;;;;6.42;51.81;99716.50;5016201;28;20053;-48
2023/01/30 01:29:10;;;;;;;17.52;10.93;;;;;;;6.67;51.86;99716.72;5034004;28;20018;-48
2023/01/30 01:31:35;;;;;;;18.50;11.50;;;;;;;6.89;51.65;99715.44;5033802;28;20040;-48
2023/01/30 01:34:01;;;;;;;15.32;12.35;;;;;;;7.05;51.57;99712.16;5033927;28;20034;-48
2023/01/30 01:36:27;;;;;;;17.48;11.98;;;;;;;7.18;51.03;99707.34;5033780;28;20038;-48
2023/01/30 01:38:52;;;;;;;19.98;11.75;;;;;;;7.29;50.73;99711.50;5033798;28;20052;-48
2023/01/30 01:41:18;;;;;;;17.38;12.27;;;;;;;7.35;50.07;99716.09;5033759;28;20396;-48
2023/01/30 01:44:16;;;;;;;16.67;10.95;;;;;;;7.42;50.35;99714.50;5015843;28;20029;-48
2023/01/30 01:46:58;;;;;;;14.25;11.55;;;;;;;7.55;49.75;99716.72;4972935;28;20412;-50
2023/01/30 01:49:34;;;;;;;18.63;11.32;;;;;;;7.57;49.68;99707.75;5033843;28;20084;-48
2023/01/30 01:52:10;;;;;;;15.82;11.57;;;;;;;7.61;49.98;99705.66;5015855;28;20120;-48
2023/01/30 01:54:43;;;;;;;15.40;11.65;;;;;;;7.61;49.07;99708.25;5033316;28;20388;-48
2023/01/30 01:57:17;;;;;;;16.35;11.95;;;;;;;7.53;48.76;99701.19;5016109;28;20041;-48
2023/01/30 01:59:51;;;;;;;17.40;10.85;;;;;;;7.36;48.61;99694.22;5033425;28;20029;-49
2023/01/30 02:02:18;;;;;;;15.65;11.80;;;;;;;7.31;49.46;99679.03;5033438;28;20048;-48
2023/01/30 02:05:11;;;;;;;13.60;11.15;;;;;;;7.13;48.94;99679.09;5015430;28;20026;-48
2023/01/30 02:07:38;;;;;;;15.02;12.10;;;;;;;6.73;49.07;99679.63;5032721;28;20048;-48
2023/01/30 02:10:07;;;;;;;15.77;11.77;;;;;;;6.43;49.04;99681.63;5015398;28;20073;-48
2023/01/30 02:12:33;;;;;;;18.58;12.75;;;;;;;6.13;49.15;99681.00;5015361;28;20021;-48
2023/01/30 02:15:00;;;;;;;16.45;12.27;;;;;;;5.91;49.73;99684.81;5015264;28;20095;-48
2023/01/30 02:17:26;;;;;;;15.43;11.77;;;;;;;5.79;50.24;99681.59;5033052;28;20029;-48
2023/01/30 02:20:03;;;;;;;17.55;13.10;;;;;;;5.71;50.34;99683.25;5015204;28;20091;-48
2023/01/30 02:22:44;;;;;;;19.27;14.43;;;;;;;5.66;50.86;99686.31;5033268;28;20099;-48
2023/01/30 02:25:48;;;;;;;19.02;12.48;;;;;;;5.73;51.11;99689.97;5032996;28;20018;-48
2023/01/30 02:28:16;;;;;;;15.80;12.65;;;;;;;5.82;51.29;99692.69;5015089;28;20025;-48
2023/01/30 02:31:11;;;;;;;19.40;12.65;;;;;;;5.89;52.11;99691.13;5014982;28;20033;-48
2023/01/30 02:33:46;;;;;;;16.33;11.88;;;;;;;6.01;50.98;99687.38;5023465;28;20067;-48
2023/01/30 02:36:20;;;;;;;17.07;11.43;;;;;;;6.07;51.56;99694.63;5032753;28;20060;-48
2023/01/30 02:38:52;;;;;;;14.88;11.63;;;;;;;6.06;51.62;99700.00;5014899;28;20256;-48
2023/01/30 02:41:41;;;;;;;15.68;12.07;;;;;;;5.90;51.58;99696.22;5014900;28;20052;-48
2023/01/30 02:44:24;;;;;;;14.45;11.18;;;;;;;5.77;51.18;99699.13;5032499;28;20112;-48
2023/01/30 02:47:06;;;;;;;14.95;11.13;;;;;;;5.72;51.56;99701.38;5014692;28;20038;-48
2023/01/30 02:49:44;;;;;;;18.02;12.65;;;;;;;5.90;52.15;99703.22;5014767;28;20030;-48
2023/01/30 02:52:11;;;;;;;18.77;12.38;;;;;;;6.09;52.24;99702.31;5032463;28;20099;-48
2023/01/30 02:54:37;;;;;;;16.58;12.18;;;;;;;6.29;52.11;99701.22;5014353;28;20045;-48
2023/01/30 02:57:03;;;;;;;16.48;11.48;;;;;;;6.35;51.24;99691.97;5032316;28;20047;-49
2023/01/30 02:59:37;;;;;;;14.13;11.93;;;;;;;6.21;50.99;99701.13;5032335;28;20029;-48
2023/01/30 03:02:32;;;;;;;16.58;12.00;;;;;;;6.18;52.12;99704.03;5014495;28;20041;-49
2023/01/30 03:05:12;;;;;;;18.88;12.25;;;;;;;6.25;51.52;99714.69;5032249;28;20063;-48
2023/01/30 03:08:05;;;;;;;17.85;12.57;;;;;;;6.19;51.08;99708.28;5014458;28;20034;-48
2023/01/30 03:11:08;;;;;;;26.80;12.77;;;;;;;6.22;51.53;99712.38;5014769;28;20029;-49
2023/01/30 03:13:40;;;;;;;15.85;11.65;;;;;;;6.43;51.39;99725.97;4932597;29;20036;-48
2023/01/30 03:16:22;;;;;;;17.13;11.57;;;;;;;6.70;51.76;99722.47;4932610;29;20043;-48
2023/01/30 03:18:48;;;;;;;19.23;12.10;;;;;;;6.89;51.35;99725.88;4900991;29;20123;-48
2023/01/30 03:21:14;;;;;;;18.17;12.05;;;;;;;7.06;51.22;99729.44;4932567;29;20048;-48
2023/01/30 03:23:40;;;;;;;17.60;11.80;;;;;;;7.24;50.75;99732.00;4916589;29;20032;-48
2023/01/30 03:26:12;;;;;;;18.13;12.20;;;;;;;7.28;49.97;99742.00;4932549;29;20432;-48
2023/01/30 03:28:38;;;;;;;20.27;11.60;;;;;;;7.33;49.96;99746.78;4932568;29;20074;-49
2023/01/30 03:31:04;;;;;;;15.98;11.52;;;;;;;7.26;49.51;99751.78;4900865;29;20031;-48
2023/01/30 03:33:29;;;;;;;14.90;11.55;;;;;;;7.19;49.13;99750.75;4932353;29;20039;-48
2023/01/30 03:35:55;;;;;;;15.50;11.38;;;;;;;7.06;49.20;99761.56;4931881;29;20028;-48
2023/01/30 03:38:21;;;;;;;20.77;11.73;;;;;;;6.97;49.40;99757.28;4916574;29;20132;-48
2023/01/30 03:40:46;;;;;;;15.00;11.30;;;;;;;6.88;50.11;99766.84;4932276;29;20043;-48
2023/01/30 03:43:12;;;;;;;14.80;10.23;;;;;;;6.84;49.82;99791.59;4916394;29;20024;-48
2023/01/30 03:45:38;;;;;;;16.35;11.52;;;;;;;6.77;49.64;99800.97;4932286;29;20051;-48
2023/01/30 03:48:03;;;;;;;16.70;9.82;;;;;;;6.73;50.24;99807.44;4992755;28;20520;-48
2023/01/30 03:50:29;;;;;;;19.92;11.05;;;;;;;6.64;49.40;99811.75;5013900;28;20029;-48
2023/01/30 03:52:54;;;;;;;13.65;10.50;;;;;;;6.57;49.85;99806.28;5010488;28;20120;-48
2023/01/30 03:55:20;;;;;;;13.52;10.10;;;;;;;6.52;49.80;99797.25;5010650;28;20033;-48
2023/01/30 03:57:46;;;;;;;16.42;10.15;;;;;;;6.32;49.87;99788.75;5010627;28;20112;-48
2023/01/30 04:00:12;;;;;;;12.90;10.52;;;;;;;6.28;49.88;99774.34;5011893;28;20038;-48
2023/01/30 04:02:37;;;;;;;14.25;9.60;;;;;;;6.30;50.91;99777.63;5010562;28;20034;-48
2023/01/30 04:05:04;;;;;;;15.32;10.40;;;;;;;6.32;50.71;99776.53;5010469;28;20045;-48
2023/01/30 04:07:30;;;;;;;18.17;10.50;;;;;;;6.39;50.80;99784.59;4994152;28;20045;-48
2023/01/30 04:09:55;;;;;;;13.05;10.20;;;;;;;6.40;50.54;99781.03;5010503;28;20026;-48
2023/01/30 04:12:24;;;;;;;13.25;9.57;;;;;;;6.41;49.88;99777.44;5010504;28;20030;-48
2023/01/30 04:14:50;;;;;;;16.83;9.77;;;;;;;6.39;50.06;99774.97;5011801;28;20048;-48
2023/01/30 04:17:15;;;;;;;15.90;9.95;;;;;;;6.25;50.45;99793.72;5011933;28;20484;-47
2023/01/30 04:19:41;;;;;;;15.30;10.15;;;;;;;6.27;50.30;99798.78;5011733;28;20049;-48
2023/01/30 04:22:07;;;;;;;16.40;10.07;;;;;;;6.32;50.53;99793.97;5010372;28;20037;-48
2023/01/30 04:24:32;;;;;;;13.75;9.98;;;;;;;6.27;50.27;99776.13;5011549;28;20029;-48
2023/01/30 04:26:58;;;;;;;13.70;9.45;;;;;;;6.33;50.82;99790.38;5010329;28;20026;-48
2023/01/30 04:29:23;;;;;;;12.68;9.45;;;;;;;6.37;50.63;99795.16;5011600;28;20029;-48
2023/01/30 04:31:49;;;;;;;14.13;10.20;;;;;;;6.44;50.70;99777.16;5010223;28;20030;-48
2023/01/30 04:34:15;;;;;;;12.43;10.45;;;;;;;6.31;49.99;99779.28;5010294;28;20514;-48
2023/01/30 04:36:40;;;;;;;19.75;9.45;;;;;;;6.11;50.40;99789.78;5011485;28;20029;-48
2023/01/30 04:39:06;;;;;;;15.88;10.32;;;;;;;6.09;50.61;99785.69;5010214;28;20033;-48
2023/01/30 04:41:31;;;;;;;14.55;10.23;;;;;;;6.14;50.54;99784.31;5011466;28;20115;-48
2023/01/30 04:43:57;;;;;;;14.60;8.75;;;;;;;6.20;50.23;99785.50;5011603;28;20022;-48
2023/01/30 04:46:23;;;;;;;11.32;9.35;;;;;;;6.25;50.08;99778.06;5011508;28;20109;-48
2023/01/30 04:48:48;;;;;;;14.85;9.75;;;;;;;6.24;50.30;99776.44;5013201;28;20026;-48
2023/01/30 04:51:14;;;;;;;15.43;9.32;;;;;;;6.22;50.51;99773.16;5014899;28;20132;-48
2023/01/30 04:53:39;;;;;;;14.63;10.40;;;;;;;6.16;50.20;99782.38;5013469;28;20049;-48
2023/01/30 04:56:05;;;;;;;19.88;9.38;;;;;;;6.16;50.57;99778.94;5014819;28;20018;-48
2023/01/30 04:58:31;;;;;;;105.95;89.72;;;;;;;6.16;50.80;99766.72;5014791;28;20373;-48
2023/01/30 05:01:12;;;;;;;109.30;88.60;;;;;;;6.20;51.54;99760.25;5013422;28;20040;-48
2023/01/30 05:03:37;;;;;;;29.88;23.67;;;;;;;6.32;51.01;99760.06;5014934;28;20400;-48
2023/01/30 05:06:03;;;;;;;29.33;18.85;;;;;;;6.46;50.91;99754.34;4997059;28;20037;-48
2023/01/30 05:08:28;;;;;;;19.48;9.43;;;;;;;6.56;50.79;99756.88;5014554;28;20029;-48
2023/01/30 05:10:57;;;;;;;13.70;9.50;;;;;;;6.62;50.67;99738.06;5014514;28;20032;-48
2023/01/30 05:13:22;;;;;;;15.45;8.82;;;;;;;6.59;50.54;99741.75;5014530;28;20026;-48
2023/01/30 05:15:48;;;;;;;13.55;8.27;;;;;;;6.59;49.93;99731.31;5013110;28;20026;-48
2023/01/30 05:18:16;;;;;;;13.90;8.43;;;;;;;6.64;50.53;99740.50;5014479;28;20483;-48
2023/01/30 05:20:42;;;;;;;12.55;7.80;;;;;;;6.61;50.53;99746.84;5014344;28;20038;-48
2023/01/30 05:23:07;;;;;;;19.42;8.23;;;;;;;6.52;50.22;99743.34;5014500;28;20021;-48
2023/01/30 05:25:33;;;;;;;15.23;8.25;;;;;;;6.48;50.71;99739.38;5014295;28;20026;-48
2023/01/30 05:27:59;;;;;;;15.75;8.90;;;;;;;6.49;51.12;99740.19;5014292;28;20037;-48
2023/01/30 05:30:24;;;;;;;13.98;8.10;;;;;;;6.43;50.52;99732.97;5014135;28;20061;-48
2023/01/30 05:32:50;;;;;;;22.63;8.95;;;;;;;6.30;51.02;99733.31;5012854;28;20037;-48
2023/01/30 05:35:16;;;;;;;15.35;8.25;;;;;;;6.32;50.75;99720.97;5014145;28;20058;-48
2023/01/30 05:37:41;;;;;;;18.25;10.80;;;;;;;6.32;50.76;99723.56;5012764;28;20057;-48
2023/01/30 05:40:09;;;;;;;14.38;11.30;;;;;;;6.15;50.51;99739.00;5012722;28;20147;-48
2023/01/30 05:42:34;;;;;;;15.48;9.85;;;;;;;6.03;50.59;99740.19;5012666;28;20026;-48
2023/01/30 05:45:00;;;;;;;15.70;8.52;;;;;;;5.87;51.22;99743.38;5012567;28;20029;-48
2023/01/30 05:47:26;;;;;;;15.18;9.18;;;;;;;5.80;51.84;99726.69;5012627;28;20399;-48
2023/01/30 05:49:51;;;;;;;14.77;8.23;;;;;;;5.92;51.81;99720.31;5013768;28;20034;-48
2023/01/30 05:52:17;;;;;;;17.65;9.20;;;;;;;6.00;51.31;99723.06;5012502;28;20026;-48
2023/01/30 05:54:42;;;;;;;14.30;8.40;;;;;;;6.03;51.89;99716.72;5032979;28;20608;-48
2023/01/30 05:57:08;;;;;;;14.70;8.75;;;;;;;6.00;51.76;99711.81;5015682;28;20029;-48
2023/01/30 05:59:36;;;;;;;18.50;8.13;;;;;;;6.15;52.32;99707.75;5015162;28;20033;-48
2023/01/30 06:02:02;;;;;;;13.48;8.52;;;;;;;6.17;51.33;99708.41;5015624;28;20037;-48
2023/01/30 06:04:28;;;;;;;12.27;8.27;;;;;;;6.25;52.63;99715.50;5015436;28;20032;-48
2023/01/30 06:06:53;;;;;;;16.08;8.75;;;;;;;6.32;52.05;99705.34;4999113;28;20029;-48
2023/01/30 06:09:19;;;;;;;21.00;8.32;;;;;;;6.39;51.81;99711.56;5033270;28;20071;-47
2023/01/30 06:11:44;;;;;;;14.65;8.38;;;;;;;6.46;51.19;99706.56;5033183;28;20510;-48
2023/01/30 06:14:10;;;;;;;14.77;8.45;;;;;;;6.44;51.54;99708.53;5033198;28;20395;-48
2023/01/30 06:16:36;;;;;;;17.80;7.85;;;;;;;6.35;50.93;99708.44;5033054;28;20068;-48
2023/01/30 06:19:01;;;;;;;16.00;7.55;;;;;;;6.18;51.08;99717.06;5033040;28;20029;-48
2023/01/30 06:21:27;;;;;;;13.80;7.43;;;;;;;6.02;51.25;99722.91;5032951;28;20032;-48
2023/01/30 06:23:52;;;;;;;17.95;8.70;;;;;;;5.92;51.26;99720.31;5015152;28;20025;-48
2023/01/30 06:26:18;;;;;;;17.63;7.85;;;;;;;5.98;52.40;99716.34;5032907;28;20115;-48
2023/01/30 06:28:43;;;;;;;15.10;6.97;;;;;;;6.03;51.41;99708.91;5015083;28;20025;-48
2023/01/30 06:31:09;;;;;;;11.57;7.00;;;;;;;5.99;50.45;99717.97;4998718;28;20029;-48
2023/01/30 06:33:35;;;;;;;21.40;7.38;;;;;;;5.82;51.25;99729.16;5015009;28;20040;-47
2023/01/30 06:36:01;;;;;;;22.02;8.00;;;;;;;5.69;52.27;99730.28;5014944;28;20448;-47
2023/01/30 06:38:27;;;;;;;10.95;6.53;;;;;;;5.71;52.26;99720.53;5032614;28;20075;-48
2023/01/30 06:40:52;;;;;;;10.25;6.60;;;;;;;5.68;51.74;99720.84;5032641;28;20072;-47
2023/01/30 06:43:18;;;;;;;14.60;7.07;;;;;;;5.71;51.67;99715.34;5032525;28;20029;-47
2023/01/30 06:45:43;;;;;;;13.88;7.20;;;;;;;5.69;51.56;99721.66;5032520;28;20036;-48
2023/01/30 06:48:09;;;;;;;18.73;7.40;;;;;;;5.57;51.91;99731.44;5014745;28;20018;-47
2023/01/30 06:50:35;;;;;;;14.02;7.88;;;;;;;5.40;51.85;99743.41;5032401;28;20029;-48
2023/01/30 06:53:06;;;;;;;13.38;7.47;;;;;;;5.33;51.70;99750.97;5032056;28;20048;-48
2023/01/30 06:55:36;;;;;;;13.50;6.43;;;;;;;5.27;52.54;99745.47;5032336;28;20041;-47
2023/01/30 06:58:05;;;;;;;12.57;6.75;;;;;;;5.35;53.08;99743.00;5032287;28;20048;-47
2023/01/30 07:00:32;;;;;;;12.38;6.80;;;;;;;5.44;52.15;99757.78;5014841;28;20101;-48
2023/01/30 07:02:57;;;;;;;12.20;6.70;;;;;;;5.44;52.47;99762.19;5014468;28;20022;-48
2023/01/30 07:05:23;;;;;;;11.02;6.40;;;;;;;5.33;52.58;99766.59;5032165;28;20087;-47
2023/01/30 07:07:49;;;;;;;13.75;7.60;;;;;;;5.26;52.53;99772.47;5014485;28;20064;-48
2023/01/30 07:10:15;;;;;;;11.40;7.00;;;;;;;5.22;52.32;99760.69;5031365;28;20033;-47
2023/01/30 07:12:40;;;;;;;15.38;7.38;;;;;;;5.22;53.44;99769.31;5014277;28;20087;-48
2023/01/30 07:15:06;;;;;;;20.98;16.67;;;;;;;5.25;52.23;99771.66;5031953;28;20143;-48
2023/01/30 07:17:32;;;;;;;26.70;10.75;;;;;;;5.12;52.82;99776.31;5014256;28;20506;-47
2023/01/30 07:19:58;;;;;;;17.90;8.95;;;;;;;5.02;52.89;99778.09;5032005;28;20063;-47
2023/01/30 07:22:24;;;;;;;16.55;8.05;;;;;;;4.99;53.17;99774.81;5014172;28;20085;-47
2023/01/30 07:24:49;;;;;;;20.90;10.05;;;;;;;4.92;53.30;99778.09;5031888;28;20393;-47
2023/01/30 07:27:15;;;;;;;21.13;8.82;;;;;;;4.87;53.72;99778.53;5014139;28;20041;-47
2023/01/30 07:29:41;;;;;;;36.55;10.27;;;;;;;4.83;52.97;99771.09;5014487;28;20080;-47
2023/01/30 07:32:11;;;;;;;17.88;8.85;;;;;;;4.89;53.48;99787.00;5014036;28;20057;-47
2023/01/30 07:34:37;;;;;;;32.08;12.50;;;;;;;4.89;53.52;99800.03;5031870;28;20104;-47
2023/01/30 07:37:02;;;;;;;24.55;11.00;;;;;;;4.93;52.97;99800.53;5031760;28;20117;-47
2023/01/30 07:39:28;;;;;;;25.08;8.60;;;;;;;4.93;53.18;99806.59;5031826;28;20070;-47
2023/01/30 07:41:53;;;;;;;21.63;8.57;;;;;;;5.00;53.54;99796.44;5014012;28;20501;-47
2023/01/30 07:44:19;;;;;;;29.77;15.43;;;;;;;5.12;52.96;99781.53;5031663;28;20032;-48
2023/01/30 07:46:45;;;;;;;22.33;8.60;;;;;;;5.25;53.09;99783.84;5013930;28;20029;-47
2023/01/30 07:49:10;;;;;;;22.13;8.93;;;;;;;5.38;52.80;99781.78;5031630;28;20113;-47
2023/01/30 07:51:36;;;;;;;15.30;7.07;;;;;;;5.48;52.33;99779.16;5031613;28;20479;-47
2023/01/30 07:54:02;;;;;;;20.35;8.60;;;;;;;5.56;52.72;99793.09;5031437;28;20057;-48
2023/01/30 07:56:28;;;;;;;15.35;7.53;;;;;;;5.70;52.67;99789.22;5031555;28;20026;-48
2023/01/30 07:58:54;;;;;;;15.63;6.75;;;;;;;5.70;51.42;99799.66;5031621;28;20521;-47
2023/01/30 08:01:20;;;;;;;19.98;8.05;;;;;;;5.77;51.25;99799.91;5031569;28;20025;-47
2023/01/30 08:03:48;;;;;;;18.73;7.90;;;;;;;5.85;51.21;99796.59;5013696;28;20548;-48
2023/01/30 08:06:14;;;;;;;27.33;9.13;;;;;;;5.93;50.90;99799.31;4997664;28;20025;-48
2023/01/30 08:08:41;;;;;;;15.50;7.07;;;;;;;5.98;50.95;99821.41;5031512;28;20403;-47
2023/01/30 08:11:07;;;;;;;15.18;7.05;;;;;;;6.08;50.34;99817.94;5013727;28;20022;-48
2023/01/30 08:13:32;;;;;;;13.63;6.63;;;;;;;5.93;49.92;99841.81;5031459;28;20029;-47
2023/01/30 08:15:59;;;;;;;11.02;7.57;;;;;;;5.79;50.61;99843.09;5013650;28;20107;-47
2023/01/30 08:18:27;;;;;;;26.95;8.77;;;;;;;5.78;50.32;99849.25;5013674;28;20442;-48
2023/01/30 08:20:56;;;;;;;37.28;15.73;;;;;;;5.80;50.79;99847.34;5013988;28;20097;-47
2023/01/30 08:23:22;;;;;;;28.08;9.88;;;;;;;5.72;50.58;99841.19;5017611;28;20115;-47
2023/01/30 08:25:47;;;;;;;42.80;9.65;;;;;;;5.72;51.33;99838.59;5017659;28;20075;-47
2023/01/30 08:28:13;;;;;;;34.08;17.48;;;;;;;5.97;51.62;99843.19;5017535;28;20025;-48
2023/01/30 08:30:41;;;;;;;35.92;11.38;;;;;;;6.16;51.18;99844.94;5017276;28;20112;-48
2023/01/30 08:33:06;;;;;;;14.13;7.82;;;;;;;6.28;50.53;99856.00;5017253;28;20025;-48
2023/01/30 08:35:32;;;;;;;24.00;8.52;;;;;;;6.29;49.82;99849.00;5017180;28;20051;-48
2023/01/30 08:37:58;;;;;;;19.90;8.10;;;;;;;6.30;49.54;99853.22;5017170;28;20033;-48
2023/01/30 08:40:23;;;;;;;59.38;15.82;;;;;;;6.29;49.42;99854.19;5017130;28;20033;-47
2023/01/30 08:42:49;;;;;;;40.63;16.13;;;;;;;6.35;49.94;99866.66;5035047;28;20029;-48
2023/01/30 08:45:15;;;;;;;37.72;13.60;;;;;;;6.48;49.74;99856.72;5016972;28;20021;-48
2023/01/30 08:47:40;;;;;;;18.17;10.10;;;;;;;6.51;48.66;99866.84;5034803;28;20112;-47
2023/01/30 08:50:07;;;;;;;29.65;15.63;;;;;;;6.49;49.42;99874.00;5035047;28;20506;-48
2023/01/30 08:52:32;;;;;;;14.75;11.30;;;;;;;6.55;49.42;99863.00;5034682;28;20034;-48
2023/01/30 08:54:58;;;;;;;25.77;16.38;;;;;;;6.60;48.48;99873.00;5034405;28;20084;-48
2023/01/30 08:57:23;;;;;;;19.20;9.15;;;;;;;6.60;48.87;99867.78;5034582;28;20049;-48
2023/01/30 08:59:52;;;;;;;16.45;8.43;;;;;;;6.75;48.85;99858.50;5016804;28;20489;-48
2023/01/30 09:02:18;;;;;;;24.85;10.85;;;;;;;6.97;48.55;99862.47;5016671;28;20030;-48
2023/01/30 09:04:43;;;;;;;106.35;56.15;;;;;;;7.17;48.61;99872.78;5034350;28;20033;-48
2023/01/30 09:07:09;;;;;;;51.70;33.35;;;;;;;7.30;49.05;99873.22;5016634;28;20021;-48
2023/01/30 09:09:35;;;;;;;172.18;129.73;;;;;;;7.41;48.70;99864.34;5034293;28;20079;-48
2023/01/30 09:12:00;;;;;;;171.90;127.97;;;;;;;7.52;48.00;99865.91;5034366;28;20018;-48
2023/01/30 09:14:26;;;;;;;76.28;45.90;;;;;;;7.40;47.09;99863.53;5034258;28;20029;-48
2023/01/30 09:16:54;;;;;;;41.40;23.85;;;;;;;7.43;47.34;99849.34;5034324;28;20452;-48
2023/01/30 09:19:25;;;;;;;23.77;11.95;;;;;;;7.55;46.96;99844.72;5034202;28;20549;-48
2023/01/30 09:21:51;;;;;;;28.75;12.48;;;;;;;7.78;46.95;99845.03;5016475;28;20033;-47
2023/01/30 09:24:18;;;;;;;34.05;12.95;;;;;;;7.91;46.75;99852.47;5016265;28;20064;-48
2023/01/30 09:26:44;;;;;;;21.05;8.20;;;;;;;8.08;46.04;99856.78;5016252;28;20024;-48
2023/01/30 09:29:11;;;;;;;25.45;13.95;;;;;;;8.28;45.96;99861.81;5034035;28;20022;-48
2023/01/30 09:31:36;;;;;;;16.40;8.27;;;;;;;8.35;44.27;99861.03;5034008;28;20021;-48
2023/01/30 09:34:02;;;;;;;20.63;8.98;;;;;;;8.20;44.49;99883.50;5015384;28;20083;-48
2023/01/30 09:36:27;;;;;;;36.72;8.85;;;;;;;8.03;44.43;99877.38;5033867;28;20033;-48
2023/01/30 09:38:53;;;;;;;26.70;8.55;;;;;;;7.88;44.64;99871.88;5034130;28;20033;-48
2023/01/30 09:41:32;;;;;;;18.70;8.52;;;;;;;7.82;44.43;99866.44;5015957;28;20088;-48
2023/01/30 09:43:58;;;;;;;18.00;9.02;;;;;;;7.91;44.01;99868.16;5016549;28;20139;-48
2023/01/30 09:46:41;;;;;;;22.30;8.57;;;;;;;7.92;44.66;99870.59;5033706;28;20020;-48
2023/01/30 09:49:22;;;;;;;13.82;9.48;;;;;;;7.97;43.26;99881.41;5033720;28;20025;-48
2023/01/30 09:51:52;;;;;;;14.13;8.05;;;;;;;7.97;43.11;99881.41;5015797;28;20522;-48
2023/01/30 09:54:25;;;;;;;14.88;7.13;;;;;;;8.09;42.75;99865.44;5033334;28;20046;-48
2023/01/30 09:57:19;;;;;;;19.95;8.57;;;;;;;8.13;43.22;99872.84;5015787;28;20509;-48
2023/01/30 10:00:13;;;;;;;16.60;10.18;;;;;;;8.11;43.47;99869.56;5025214;28;20038;-48
2023/01/30 10:02:51;;;;;;;16.50;7.07;;;;;;;8.33;42.74;99875.22;4991462;28;20503;-48
2023/01/30 10:05:17;;;;;;;13.27;7.75;;;;;;;8.37;42.06;99877.38;5033536;28;20033;-48
2023/01/30 10:07:51;;;;;;;16.67;7.22;;;;;;;8.14;41.63;99877.09;5033300;28;20036;-47
2023/01/30 10:10:29;;;;;;;18.80;8.90;;;;;;;7.77;41.98;99886.03;5033289;28;20579;-47
2023/01/30 10:13:02;;;;;;;17.95;7.40;;;;;;;7.55;42.90;99878.66;5033281;28;20041;-48
2023/01/30 10:15:42;;;;;;;12.15;7.38;;;;;;;7.60;43.02;99863.34;5033128;28;20025;-48
2023/01/30 10:18:10;;;;;;;23.50;9.40;;;;;;;7.72;43.33;99872.56;5033110;28;20029;-47
2023/01/30 10:21:04;;;;;;;96.85;74.30;;;;;;;7.85;42.71;99872.19;5015241;28;20033;-48
2023/01/30 10:23:50;;;;;;;18.73;12.45;;;;;;;8.10;42.34;99870.53;5015144;28;20121;-47
2023/01/30 10:26:20;;;;;;;20.05;15.65;;;;;;;8.04;42.20;99880.81;5015141;28;20513;-47
2023/01/30 10:29:11;;;;;;;24.02;13.30;;;;;;;7.99;43.11;99884.69;5032916;28;20036;-47
2023/01/30 10:31:50;;;;;;;15.65;8.18;;;;;;;8.04;42.24;99886.03;5032877;28;20026;-47
2023/01/30 10:34:28;;;;;;;19.40;9.30;;;;;;;7.89;42.28;99889.22;5032820;28;20112;-47
2023/01/30 10:37:07;;;;;;;24.45;11.55;;;;;;;7.92;42.94;99898.53;5033030;28;20040;-47
2023/01/30 10:39:55;;;;;;;17.95;10.00;;;;;;;8.06;42.87;99900.59;5032675;28;20568;-47
2023/01/30 10:42:33;;;;;;;24.10;7.45;;;;;;;8.33;42.52;99881.28;5032550;28;20025;-47
2023/01/30 10:45:43;;;;;;;14.55;8.45;;;;;;;8.40;41.95;99881.47;5014831;28;20033;-47
2023/01/30 10:48:21;;;;;;;13.70;8.32;;;;;;;8.41;41.97;99877.94;5032534;28;20029;-47
2023/01/30 10:50:54;;;;;;;14.77;8.63;;;;;;;8.07;41.69;99888.31;5032536;28;20037;-48
2023/01/30 10:53:34;;;;;;;15.35;7.72;;;;;;;8.12;42.47;99883.47;5011360;28;20060;-47
2023/01/30 10:56:11;;;;;;;13.57;7.07;;;;;;;8.29;42.32;99873.91;5012744;28;20030;-47
2023/01/30 10:59:14;;;;;;;12.27;8.18;;;;;;;8.69;42.03;99865.44;5012677;28;20117;-48
2023/01/30 11:02:20;;;;;;;15.63;7.85;;;;;;;8.90;41.38;99845.88;5011231;28;20030;-48
2023/01/30 11:04:58;;;;;;;17.13;9.27;;;;;;;9.32;41.01;99853.59;5012082;28;20046;-48
2023/01/30 11:07:31;;;;;;;14.85;8.48;;;;;;;9.70;40.02;99847.84;5011098;28;20045;-48
2023/01/30 11:09:58;;;;;;;13.30;8.07;;;;;;;10.14;39.41;99837.78;5012523;28;20400;-48
2023/01/30 11:12:23;;;;;;;16.85;8.43;;;;;;;11.42;39.03;99833.13;5012624;28;20404;-48
2023/01/30 11:14:52;;;;;;;14.57;8.38;;;;;;;12.77;36.41;99825.06;5012386;28;20032;-48
2023/01/30 11:17:20;;;;;;;12.00;7.95;;;;;;;13.76;34.42;99825.16;5012335;28;20071;-49
2023/01/30 11:19:55;;;;;;;12.88;7.60;;;;;;;14.09;33.32;99843.00;5011062;28;20022;-48
2023/01/30 11:22:26;;;;;;;14.10;7.60;;;;;;;13.43;33.50;99840.72;5012293;28;20034;-48
2023/01/30 11:25:20;;;;;;;15.23;8.02;;;;;;;12.49;33.89;99840.75;5010924;28;20030;-48
2023/01/30 11:28:00;;;;;;;15.63;7.40;;;;;;;11.69;34.94;99845.72;5010786;28;20025;-48
2023/01/30 11:30:33;;;;;;;16.90;8.18;;;;;;;11.14;36.87;99842.34;5010921;28;20120;-48
2023/01/30 11:33:15;;;;;;;18.48;9.07;;;;;;;10.91;37.48;99831.03;5012219;28;20037;-48
2023/01/30 11:35:56;;;;;;;15.27;8.38;;;;;;;11.16;36.27;99835.13;5012679;28;20092;-48
2023/01/30 11:38:31;;;;;;;16.23;9.07;;;;;;;10.72;36.34;99837.53;5012203;28;20491;-48
2023/01/30 11:41:19;;;;;;;17.10;9.23;;;;;;;10.33;37.39;99839.19;5012319;28;20088;-48
2023/01/30 11:43:46;;;;;;;16.33;8.00;;;;;;;11.31;37.56;99829.94;5010728;28;20092;-48
2023/01/30 11:46:17;;;;;;;13.07;9.60;;;;;;;13.12;36.74;99820.75;5012059;28;20026;-48